sensor_id;sensor_type;location;lat;lon;timestamp;P1;durP1;ratioP1;P2;durP2;ratioP2
43182;SDS011;28802;38.578;-0.066;2022-12-29T00:01:37;23.77;;;13.00;;
43182;SDS011;28802;38.578;-0.066;2022-12-29T00:04:03;20.17;;;12.23;;
43182;SDS011;28802;38.578;-0.066;2022-12-29T00:06:30;20.33;;;12.77;;
43182;SDS011;28802;38.578;-0.066;2022-12-29T00:08:56;18.33;;;11.90;;
43182;SDS011;28802;38.578;-0.066;2022-12-29T00:11:23;15.77;;;11.87;;
43182;SDS011;28802;38.578;-0.066;2022-12-29T00:13:51;22.13;;;12.00;;
43182;SDS011;28802;38.578;-0.066;2022-12-29T00:16:36;15.90;;;10.80;;
43182;SDS011;28802;38.578;-0.066;2022-12-29T00:19:03;13.33;;;10.20;;
43182;SDS011;28802;38.578;-0.066;2022-12-29T00:21:30;14.83;;;10.30;;
43182;SDS011;28802;38.578;-0.066;2022-12-29T00:24:19;16.20;;;10.20;;
43182;SDS011;28802;38.578;-0.066;2022-12-29T00:27:13;17.27;;;10.80;;
43182;SDS011;28802;38.578;-0.066;2022-12-29T00:29:57;16.80;;;9.90;;
43182;SDS011;28802;38.578;-0.066;2022-12-29T00:32:42;15.00;;;10.60;;
43182;SDS011;28802;38.578;-0.066;2022-12-29T00:35:28;14.70;;;11.17;;
43182;SDS011;28802;38.578;-0.066;2022-12-29T00:37:57;16.10;;;9.93;;
43182;SDS011;28802;38.578;-0.066;2022-12-29T00:40:45;17.73;;;11.30;;
43182;SDS011;28802;38.578;-0.066;2022-12-29T00:43:29;25.53;;;12.53;;
43182;SDS011;28802;38.578;-0.066;2022-12-29T00:46:13;18.97;;;11.57;;
43182;SDS011;28802;38.578;-0.066;2022-12-29T00:48:39;17.83;;;11.30;;
43182;SDS011;28802;38.578;-0.066;2022-12-29T00:51:24;17.27;;;11.37;;
43182;SDS011;28802;38.578;-0.066;2022-12-29T00:53:49;17.13;;;12.00;;
43182;SDS011;28802;38.578;-0.066;2022-12-29T00:56:15;23.30;;;11.87;;
43182;SDS011;28802;38.578;-0.066;2022-12-29T00:58:41;22.53;;;13.40;;
43182;SDS011;28802;38.578;-0.066;2022-12-29T01:01:08;18.87;;;12.00;;
43182;SDS011;28802;38.578;-0.066;2022-12-29T01:03:35;19.07;;;12.53;;
43182;SDS011;28802;38.578;-0.066;2022-12-29T01:06:02;17.50;;;12.70;;
43182;SDS011;28802;38.578;-0.066;2022-12-29T01:08:29;19.83;;;12.30;;
43182;SDS011;28802;38.578;-0.066;2022-12-29T01:13:26;15.77;;;12.27;;
43182;SDS011;28802;38.578;-0.066;2022-12-29T01:15:53;20.40;;;14.20;;
43182;SDS011;28802;38.578;-0.066;2022-12-29T01:18:20;21.43;;;12.60;;
43182;SDS011;28802;38.578;-0.066;2022-12-29T01:20:46;20.30;;;13.70;;
43182;SDS011;28802;38.578;-0.066;2022-12-29T01:23:12;18.87;;;11.30;;
43182;SDS011;28802;38.578;-0.066;2022-12-29T01:25:47;17.33;;;11.53;;
43182;SDS011;28802;38.578;-0.066;2022-12-29T01:28:13;18.20;;;12.17;;
43182;SDS011;28802;38.578;-0.066;2022-12-29T01:30:39;17.30;;;11.83;;
43182;SDS011;28802;38.578;-0.066;2022-12-29T01:33:05;17.53;;;12.17;;
43182;SDS011;28802;38.578;-0.066;2022-12-29T01:35:31;19.93;;;11.50;;
43182;SDS011;28802;38.578;-0.066;2022-12-29T01:37:57;17.50;;;12.63;;
43182;SDS011;28802;38.578;-0.066;2022-12-29T01:40:23;17.03;;;12.03;;
43182;SDS011;28802;38.578;-0.066;2022-12-29T01:42:49;19.93;;;12.10;;
43182;SDS011;28802;38.578;-0.066;2022-12-29T01:45:16;20.67;;;12.63;;
43182;SDS011;28802;38.578;-0.066;2022-12-29T01:50:31;19.63;;;12.37;;
43182;SDS011;28802;38.578;-0.066;2022-12-29T01:53:03;22.20;;;13.20;;
43182;SDS011;28802;38.578;-0.066;2022-12-29T01:55:34;19.13;;;11.50;;
43182;SDS011;28802;38.578;-0.066;2022-12-29T01:58:07;20.13;;;12.00;;
43182;SDS011;28802;38.578;-0.066;2022-12-29T02:00:34;17.33;;;11.40;;
43182;SDS011;28802;38.578;-0.066;2022-12-29T02:03:02;22.33;;;11.80;;
43182;SDS011;28802;38.578;-0.066;2022-12-29T02:05:38;19.63;;;11.00;;
43182;SDS011;28802;38.578;-0.066;2022-12-29T02:08:14;15.07;;;8.67;;
43182;SDS011;28802;38.578;-0.066;2022-12-29T02:10:43;13.90;;;7.67;;
43182;SDS011;28802;38.578;-0.066;2022-12-29T02:13:15;9.50;;;7.13;;
43182;SDS011;28802;38.578;-0.066;2022-12-29T02:18:33;13.30;;;8.17;;
43182;SDS011;28802;38.578;-0.066;2022-12-29T02:40:46;8.93;;;5.37;;
43182;SDS011;28802;38.578;-0.066;2022-12-29T02:46:00;11.50;;;5.93;;
43182;SDS011;28802;38.578;-0.066;2022-12-29T02:48:38;5.27;;;4.20;;
43182;SDS011;28802;38.578;-0.066;2022-12-29T02:51:25;5.93;;;3.90;;
43182;SDS011;28802;38.578;-0.066;2022-12-29T02:53:57;7.93;;;4.77;;
43182;SDS011;28802;38.578;-0.066;2022-12-29T02:56:42;10.43;;;4.10;;
43182;SDS011;28802;38.578;-0.066;2022-12-29T02:59:10;7.60;;;3.33;;
43182;SDS011;28802;38.578;-0.066;2022-12-29T03:05:25;4.83;;;3.00;;
43182;SDS011;28802;38.578;-0.066;2022-12-29T03:07:55;3.60;;;3.00;;
43182;SDS011;28802;38.578;-0.066;2022-12-29T03:13:35;5.33;;;3.50;;
43182;SDS011;28802;38.578;-0.066;2022-12-29T03:19:16;5.60;;;3.10;;
43182;SDS011;28802;38.578;-0.066;2022-12-29T03:21:55;3.07;;;2.50;;
43182;SDS011;28802;38.578;-0.066;2022-12-29T03:24:44;3.20;;;2.87;;
43182;SDS011;28802;38.578;-0.066;2022-12-29T03:27:19;6.73;;;3.00;;
43182;SDS011;28802;38.578;-0.066;2022-12-29T03:29:50;3.57;;;2.43;;
43182;SDS011;28802;38.578;-0.066;2022-12-29T03:32:24;3.40;;;2.67;;
43182;SDS011;28802;38.578;-0.066;2022-12-29T03:34:55;9.00;;;3.30;;
43182;SDS011;28802;38.578;-0.066;2022-12-29T03:37:22;3.30;;;2.40;;
43182;SDS011;28802;38.578;-0.066;2022-12-29T03:39:52;4.97;;;2.90;;
43182;SDS011;28802;38.578;-0.066;2022-12-29T03:42:22;5.83;;;2.20;;
43182;SDS011;28802;38.578;-0.066;2022-12-29T03:44:53;7.27;;;2.60;;
43182;SDS011;28802;38.578;-0.066;2022-12-29T03:47:21;8.23;;;3.20;;
43182;SDS011;28802;38.578;-0.066;2022-12-29T03:49:49;4.67;;;3.37;;
43182;SDS011;28802;38.578;-0.066;2022-12-29T03:52:16;6.10;;;2.80;;
43182;SDS011;28802;38.578;-0.066;2022-12-29T03:54:43;3.33;;;3.00;;
43182;SDS011;28802;38.578;-0.066;2022-12-29T03:57:11;4.60;;;3.03;;
43182;SDS011;28802;38.578;-0.066;2022-12-29T03:59:57;3.43;;;1.93;;
43182;SDS011;28802;38.578;-0.066;2022-12-29T04:02:23;3.63;;;2.60;;
43182;SDS011;28802;38.578;-0.066;2022-12-29T04:04:49;4.77;;;2.17;;
43182;SDS011;28802;38.578;-0.066;2022-12-29T04:07:15;4.77;;;2.33;;
43182;SDS011;28802;38.578;-0.066;2022-12-29T04:09:41;4.93;;;2.20;;
43182;SDS011;28802;38.578;-0.066;2022-12-29T04:12:11;5.63;;;2.50;;
43182;SDS011;28802;38.578;-0.066;2022-12-29T04:14:37;4.30;;;2.30;;
43182;SDS011;28802;38.578;-0.066;2022-12-29T04:17:03;10.63;;;2.53;;
43182;SDS011;28802;38.578;-0.066;2022-12-29T04:19:29;2.90;;;2.00;;
43182;SDS011;28802;38.578;-0.066;2022-12-29T04:21:55;3.57;;;2.23;;
43182;SDS011;28802;38.578;-0.066;2022-12-29T04:24:21;5.97;;;2.50;;
43182;SDS011;28802;38.578;-0.066;2022-12-29T04:26:48;2.63;;;2.43;;
43182;SDS011;28802;38.578;-0.066;2022-12-29T04:29:35;4.20;;;2.10;;
43182;SDS011;28802;38.578;-0.066;2022-12-29T04:32:03;1.93;;;1.77;;
43182;SDS011;28802;38.578;-0.066;2022-12-29T04:34:31;4.50;;;2.47;;
43182;SDS011;28802;38.578;-0.066;2022-12-29T04:36:57;3.80;;;2.20;;
43182;SDS011;28802;38.578;-0.066;2022-12-29T04:39:24;3.77;;;2.23;;
43182;SDS011;28802;38.578;-0.066;2022-12-29T04:41:49;6.60;;;2.23;;
43182;SDS011;28802;38.578;-0.066;2022-12-29T04:44:19;9.93;;;2.43;;
43182;SDS011;28802;38.578;-0.066;2022-12-29T04:47:07;5.80;;;2.23;;
43182;SDS011;28802;38.578;-0.066;2022-12-29T04:49:49;4.13;;;2.07;;
43182;SDS011;28802;38.578;-0.066;2022-12-29T04:52:41;5.80;;;1.90;;
43182;SDS011;28802;38.578;-0.066;2022-12-29T04:55:09;7.90;;;2.97;;
43182;SDS011;28802;38.578;-0.066;2022-12-29T04:57:35;3.93;;;2.20;;
43182;SDS011;28802;38.578;-0.066;2022-12-29T05:00:02;2.63;;;1.90;;
43182;SDS011;28802;38.578;-0.066;2022-12-29T05:02:29;4.33;;;2.50;;
43182;SDS011;28802;38.578;-0.066;2022-12-29T05:04:56;3.57;;;2.00;;
43182;SDS011;28802;38.578;-0.066;2022-12-29T05:07:22;4.53;;;2.03;;
43182;SDS011;28802;38.578;-0.066;2022-12-29T05:09:48;5.90;;;2.40;;
43182;SDS011;28802;38.578;-0.066;2022-12-29T05:12:14;7.50;;;2.50;;
43182;SDS011;28802;38.578;-0.066;2022-12-29T05:14:51;3.87;;;2.20;;
43182;SDS011;28802;38.578;-0.066;2022-12-29T05:17:17;2.40;;;1.73;;
43182;SDS011;28802;38.578;-0.066;2022-12-29T05:19:44;4.07;;;1.43;;
43182;SDS011;28802;38.578;-0.066;2022-12-29T05:22:10;2.20;;;1.23;;
43182;SDS011;28802;38.578;-0.066;2022-12-29T05:24:37;4.57;;;1.17;;
43182;SDS011;28802;38.578;-0.066;2022-12-29T05:27:04;1.47;;;1.37;;
43182;SDS011;28802;38.578;-0.066;2022-12-29T05:29:37;2.00;;;1.10;;
43182;SDS011;28802;38.578;-0.066;2022-12-29T05:32:03;3.70;;;1.23;;
43182;SDS011;28802;38.578;-0.066;2022-12-29T05:34:29;4.23;;;1.20;;
43182;SDS011;28802;38.578;-0.066;2022-12-29T05:36:55;2.57;;;1.27;;
43182;SDS011;28802;38.578;-0.066;2022-12-29T05:39:22;3.13;;;1.23;;
43182;SDS011;28802;38.578;-0.066;2022-12-29T05:41:53;4.40;;;1.03;;
43182;SDS011;28802;38.578;-0.066;2022-12-29T05:44:27;6.00;;;1.50;;
43182;SDS011;28802;38.578;-0.066;2022-12-29T05:47:19;5.20;;;1.47;;
43182;SDS011;28802;38.578;-0.066;2022-12-29T05:50:00;3.20;;;1.60;;
43182;SDS011;28802;38.578;-0.066;2022-12-29T05:52:47;4.33;;;1.23;;
43182;SDS011;28802;38.578;-0.066;2022-12-29T05:55:13;2.40;;;1.43;;
43182;SDS011;28802;38.578;-0.066;2022-12-29T05:57:40;6.27;;;2.23;;
43182;SDS011;28802;38.578;-0.066;2022-12-29T06:00:13;2.63;;;1.30;;
43182;SDS011;28802;38.578;-0.066;2022-12-29T06:02:45;3.87;;;1.70;;
43182;SDS011;28802;38.578;-0.066;2022-12-29T06:05:11;1.90;;;1.47;;
43182;SDS011;28802;38.578;-0.066;2022-12-29T06:07:38;2.50;;;1.83;;
43182;SDS011;28802;38.578;-0.066;2022-12-29T06:10:05;5.50;;;3.40;;
43182;SDS011;28802;38.578;-0.066;2022-12-29T06:12:38;2.43;;;2.03;;
43182;SDS011;28802;38.578;-0.066;2022-12-29T06:15:04;3.00;;;2.17;;
43182;SDS011;28802;38.578;-0.066;2022-12-29T06:17:31;4.03;;;1.63;;
43182;SDS011;28802;38.578;-0.066;2022-12-29T06:19:57;4.10;;;2.03;;
43182;SDS011;28802;38.578;-0.066;2022-12-29T06:22:24;5.77;;;2.70;;
43182;SDS011;28802;38.578;-0.066;2022-12-29T06:24:50;14.10;;;2.27;;
43182;SDS011;28802;38.578;-0.066;2022-12-29T06:27:16;5.80;;;2.30;;
43182;SDS011;28802;38.578;-0.066;2022-12-29T06:29:42;3.23;;;2.10;;
43182;SDS011;28802;38.578;-0.066;2022-12-29T06:32:08;2.03;;;1.83;;
43182;SDS011;28802;38.578;-0.066;2022-12-29T06:34:35;6.03;;;2.07;;
43182;SDS011;28802;38.578;-0.066;2022-12-29T06:37:03;18.87;;;2.40;;
43182;SDS011;28802;38.578;-0.066;2022-12-29T06:39:29;6.03;;;2.03;;
43182;SDS011;28802;38.578;-0.066;2022-12-29T06:42:02;4.80;;;2.10;;
43182;SDS011;28802;38.578;-0.066;2022-12-29T06:44:54;5.30;;;2.23;;
43182;SDS011;28802;38.578;-0.066;2022-12-29T06:47:23;4.33;;;2.23;;
43182;SDS011;28802;38.578;-0.066;2022-12-29T06:49:49;3.00;;;2.00;;
43182;SDS011;28802;38.578;-0.066;2022-12-29T06:52:15;3.97;;;1.90;;
43182;SDS011;28802;38.578;-0.066;2022-12-29T06:54:41;8.73;;;2.10;;
43182;SDS011;28802;38.578;-0.066;2022-12-29T06:57:07;2.90;;;1.90;;
43182;SDS011;28802;38.578;-0.066;2022-12-29T06:59:33;2.50;;;1.70;;
43182;SDS011;28802;38.578;-0.066;2022-12-29T07:01:59;3.07;;;1.73;;
43182;SDS011;28802;38.578;-0.066;2022-12-29T07:04:27;4.93;;;1.87;;
43182;SDS011;28802;38.578;-0.066;2022-12-29T07:06:53;5.23;;;2.00;;
43182;SDS011;28802;38.578;-0.066;2022-12-29T07:09:19;5.73;;;2.20;;
43182;SDS011;28802;38.578;-0.066;2022-12-29T07:11:45;7.63;;;1.77;;
43182;SDS011;28802;38.578;-0.066;2022-12-29T07:14:11;3.87;;;1.97;;
43182;SDS011;28802;38.578;-0.066;2022-12-29T07:16:37;12.97;;;2.30;;
43182;SDS011;28802;38.578;-0.066;2022-12-29T07:19:04;3.10;;;1.93;;
43182;SDS011;28802;38.578;-0.066;2022-12-29T07:21:30;4.17;;;2.33;;
43182;SDS011;28802;38.578;-0.066;2022-12-29T07:23:56;3.80;;;2.17;;
43182;SDS011;28802;38.578;-0.066;2022-12-29T07:26:22;5.93;;;2.50;;
43182;SDS011;28802;38.578;-0.066;2022-12-29T07:28:48;8.90;;;2.40;;
43182;SDS011;28802;38.578;-0.066;2022-12-29T07:31:15;7.30;;;2.20;;
43182;SDS011;28802;38.578;-0.066;2022-12-29T07:33:42;2.43;;;1.80;;
43182;SDS011;28802;38.578;-0.066;2022-12-29T07:36:09;6.03;;;1.73;;
43182;SDS011;28802;38.578;-0.066;2022-12-29T07:38:35;6.37;;;2.40;;
43182;SDS011;28802;38.578;-0.066;2022-12-29T07:41:02;7.37;;;1.80;;
43182;SDS011;28802;38.578;-0.066;2022-12-29T07:43:28;5.60;;;2.30;;
43182;SDS011;28802;38.578;-0.066;2022-12-29T07:46:12;13.67;;;3.30;;
43182;SDS011;28802;38.578;-0.066;2022-12-29T07:48:38;5.80;;;3.03;;
43182;SDS011;28802;38.578;-0.066;2022-12-29T07:51:04;9.73;;;3.80;;
43182;SDS011;28802;38.578;-0.066;2022-12-29T07:53:30;10.83;;;5.63;;
43182;SDS011;28802;38.578;-0.066;2022-12-29T07:55:56;12.43;;;6.27;;
43182;SDS011;28802;38.578;-0.066;2022-12-29T07:58:22;13.83;;;7.03;;
43182;SDS011;28802;38.578;-0.066;2022-12-29T08:00:52;14.83;;;8.03;;
43182;SDS011;28802;38.578;-0.066;2022-12-29T08:03:19;14.03;;;7.20;;
43182;SDS011;28802;38.578;-0.066;2022-12-29T08:05:45;21.80;;;9.73;;
43182;SDS011;28802;38.578;-0.066;2022-12-29T08:08:11;32.47;;;10.90;;
43182;SDS011;28802;38.578;-0.066;2022-12-29T08:10:37;28.83;;;10.27;;
43182;SDS011;28802;38.578;-0.066;2022-12-29T08:13:03;31.80;;;14.23;;
43182;SDS011;28802;38.578;-0.066;2022-12-29T08:15:28;43.00;;;21.77;;
43182;SDS011;28802;38.578;-0.066;2022-12-29T08:17:54;34.80;;;18.63;;
43182;SDS011;28802;38.578;-0.066;2022-12-29T08:20:20;32.13;;;18.33;;
43182;SDS011;28802;38.578;-0.066;2022-12-29T08:22:50;38.77;;;19.00;;
43182;SDS011;28802;38.578;-0.066;2022-12-29T08:25:19;52.97;;;19.23;;
43182;SDS011;28802;38.578;-0.066;2022-12-29T08:27:46;38.80;;;19.37;;
43182;SDS011;28802;38.578;-0.066;2022-12-29T08:30:12;40.23;;;19.10;;
43182;SDS011;28802;38.578;-0.066;2022-12-29T08:32:42;42.27;;;17.07;;
43182;SDS011;28802;38.578;-0.066;2022-12-29T08:35:11;41.80;;;18.37;;
43182;SDS011;28802;38.578;-0.066;2022-12-29T08:37:37;35.53;;;17.70;;
43182;SDS011;28802;38.578;-0.066;2022-12-29T08:40:04;38.50;;;15.90;;
43182;SDS011;28802;38.578;-0.066;2022-12-29T08:42:31;29.80;;;12.23;;
43182;SDS011;28802;38.578;-0.066;2022-12-29T08:44:57;32.07;;;13.27;;
43182;SDS011;28802;38.578;-0.066;2022-12-29T08:47:24;33.27;;;13.43;;
43182;SDS011;28802;38.578;-0.066;2022-12-29T08:49:50;31.77;;;14.33;;
43182;SDS011;28802;38.578;-0.066;2022-12-29T08:52:16;42.07;;;19.53;;
43182;SDS011;28802;38.578;-0.066;2022-12-29T08:54:43;50.80;;;23.13;;
43182;SDS011;28802;38.578;-0.066;2022-12-29T08:57:09;50.27;;;23.07;;
43182;SDS011;28802;38.578;-0.066;2022-12-29T08:59:42;51.67;;;24.03;;
43182;SDS011;28802;38.578;-0.066;2022-12-29T09:02:10;56.27;;;25.33;;
43182;SDS011;28802;38.578;-0.066;2022-12-29T09:04:37;51.87;;;26.43;;
43182;SDS011;28802;38.578;-0.066;2022-12-29T09:07:03;53.20;;;26.33;;
43182;SDS011;28802;38.578;-0.066;2022-12-29T09:09:31;60.70;;;24.80;;
43182;SDS011;28802;38.578;-0.066;2022-12-29T09:11:58;55.20;;;26.97;;
43182;SDS011;28802;38.578;-0.066;2022-12-29T09:14:24;64.23;;;26.80;;
43182;SDS011;28802;38.578;-0.066;2022-12-29T09:16:51;73.70;;;30.30;;
43182;SDS011;28802;38.578;-0.066;2022-12-29T09:19:36;69.77;;;31.27;;
43182;SDS011;28802;38.578;-0.066;2022-12-29T09:22:03;66.87;;;31.70;;
43182;SDS011;28802;38.578;-0.066;2022-12-29T09:24:29;79.53;;;33.03;;
43182;SDS011;28802;38.578;-0.066;2022-12-29T09:26:55;79.17;;;32.97;;
43182;SDS011;28802;38.578;-0.066;2022-12-29T09:29:21;88.60;;;34.00;;
43182;SDS011;28802;38.578;-0.066;2022-12-29T09:31:47;91.83;;;37.77;;
43182;SDS011;28802;38.578;-0.066;2022-12-29T09:34:14;89.60;;;36.30;;
43182;SDS011;28802;38.578;-0.066;2022-12-29T09:36:40;88.77;;;37.90;;
43182;SDS011;28802;38.578;-0.066;2022-12-29T09:39:07;78.93;;;35.90;;
43182;SDS011;28802;38.578;-0.066;2022-12-29T09:41:38;70.03;;;30.23;;
43182;SDS011;28802;38.578;-0.066;2022-12-29T09:47:15;80.87;;;32.87;;
43182;SDS011;28802;38.578;-0.066;2022-12-29T09:49:51;77.20;;;28.27;;
43182;SDS011;28802;38.578;-0.066;2022-12-29T09:52:21;75.83;;;28.30;;
43182;SDS011;28802;38.578;-0.066;2022-12-29T10:05:46;34.87;;;15.90;;
43182;SDS011;28802;38.578;-0.066;2022-12-29T10:11:21;36.20;;;16.20;;
43182;SDS011;28802;38.578;-0.066;2022-12-29T10:17:20;25.10;;;11.87;;
43182;SDS011;28802;38.578;-0.066;2022-12-29T10:23:04;27.67;;;11.23;;
43182;SDS011;28802;38.578;-0.066;2022-12-29T10:25:40;23.03;;;11.27;;
43182;SDS011;28802;38.578;-0.066;2022-12-29T10:28:19;20.73;;;8.57;;
43182;SDS011;28802;38.578;-0.066;2022-12-29T10:30:51;25.33;;;8.13;;
43182;SDS011;28802;38.578;-0.066;2022-12-29T10:33:21;20.13;;;9.97;;
43182;SDS011;28802;38.578;-0.066;2022-12-29T10:35:51;22.07;;;9.77;;
43182;SDS011;28802;38.578;-0.066;2022-12-29T10:40:58;26.73;;;10.90;;
43182;SDS011;28802;38.578;-0.066;2022-12-29T10:43:35;32.33;;;12.60;;
43182;SDS011;28802;38.578;-0.066;2022-12-29T10:46:13;31.10;;;13.20;;
43182;SDS011;28802;38.578;-0.066;2022-12-29T10:48:43;31.77;;;12.63;;
43182;SDS011;28802;38.578;-0.066;2022-12-29T10:51:15;25.57;;;11.57;;
43182;SDS011;28802;38.578;-0.066;2022-12-29T10:53:57;23.70;;;9.87;;
43182;SDS011;28802;38.578;-0.066;2022-12-29T10:56:35;22.10;;;9.20;;
43182;SDS011;28802;38.578;-0.066;2022-12-29T11:01:58;19.23;;;9.03;;
43182;SDS011;28802;38.578;-0.066;2022-12-29T11:04:51;23.00;;;9.37;;
43182;SDS011;28802;38.578;-0.066;2022-12-29T11:07:34;23.07;;;9.73;;
43182;SDS011;28802;38.578;-0.066;2022-12-29T11:13:10;33.77;;;7.60;;
43182;SDS011;28802;38.578;-0.066;2022-12-29T11:15:46;17.27;;;6.43;;
43182;SDS011;28802;38.578;-0.066;2022-12-29T11:18:23;20.90;;;5.70;;
43182;SDS011;28802;38.578;-0.066;2022-12-29T11:21:03;17.40;;;5.23;;
43182;SDS011;28802;38.578;-0.066;2022-12-29T11:26:05;14.33;;;4.60;;
43182;SDS011;28802;38.578;-0.066;2022-12-29T11:31:48;8.80;;;3.50;;
43182;SDS011;28802;38.578;-0.066;2022-12-29T11:34:38;11.80;;;3.60;;
43182;SDS011;28802;38.578;-0.066;2022-12-29T11:37:03;15.30;;;4.90;;
43182;SDS011;28802;38.578;-0.066;2022-12-29T11:42:06;12.33;;;3.60;;
43182;SDS011;28802;38.578;-0.066;2022-12-29T11:44:42;10.60;;;3.70;;
43182;SDS011;28802;38.578;-0.066;2022-12-29T11:47:12;13.57;;;3.40;;
43182;SDS011;28802;38.578;-0.066;2022-12-29T11:49:52;7.83;;;3.60;;
43182;SDS011;28802;38.578;-0.066;2022-12-29T11:52:22;13.23;;;3.13;;
43182;SDS011;28802;38.578;-0.066;2022-12-29T11:54:50;7.60;;;2.77;;
43182;SDS011;28802;38.578;-0.066;2022-12-29T11:57:17;18.90;;;3.07;;
43182;SDS011;28802;38.578;-0.066;2022-12-29T11:59:54;13.73;;;5.67;;
43182;SDS011;28802;38.578;-0.066;2022-12-29T12:02:33;12.73;;;4.50;;
43182;SDS011;28802;38.578;-0.066;2022-12-29T12:07:59;9.07;;;3.43;;
43182;SDS011;28802;38.578;-0.066;2022-12-29T12:10:31;22.07;;;7.57;;
43182;SDS011;28802;38.578;-0.066;2022-12-29T12:13:27;10.93;;;3.10;;
43182;SDS011;28802;38.578;-0.066;2022-12-29T12:18:59;12.57;;;2.50;;
43182;SDS011;28802;38.578;-0.066;2022-12-29T12:21:43;7.40;;;2.73;;
43182;SDS011;28802;38.578;-0.066;2022-12-29T12:27:21;13.90;;;3.17;;
43182;SDS011;28802;38.578;-0.066;2022-12-29T12:29:59;9.00;;;3.13;;
43182;SDS011;28802;38.578;-0.066;2022-12-29T12:39:19;7.10;;;3.10;;
43182;SDS011;28802;38.578;-0.066;2022-12-29T12:41:52;6.83;;;2.80;;
43182;SDS011;28802;38.578;-0.066;2022-12-29T12:46:59;15.57;;;3.93;;
43182;SDS011;28802;38.578;-0.066;2022-12-29T12:55:18;14.70;;;3.90;;
43182;SDS011;28802;38.578;-0.066;2022-12-29T13:06:43;14.63;;;4.53;;
43182;SDS011;28802;38.578;-0.066;2022-12-29T13:09:32;30.77;;;10.80;;
43182;SDS011;28802;38.578;-0.066;2022-12-29T13:15:04;9.77;;;5.27;;
43182;SDS011;28802;38.578;-0.066;2022-12-29T13:18:00;19.50;;;5.67;;
43182;SDS011;28802;38.578;-0.066;2022-12-29T13:20:41;11.63;;;4.70;;
43182;SDS011;28802;38.578;-0.066;2022-12-29T13:31:20;23.80;;;8.40;;
43182;SDS011;28802;38.578;-0.066;2022-12-29T13:34:19;11.30;;;4.37;;
43182;SDS011;28802;38.578;-0.066;2022-12-29T13:36:56;14.48;;;4.80;;
43182;SDS011;28802;38.578;-0.066;2022-12-29T13:39:27;15.23;;;4.40;;
43182;SDS011;28802;38.578;-0.066;2022-12-29T13:41:58;12.17;;;4.90;;
43182;SDS011;28802;38.578;-0.066;2022-12-29T13:44:31;16.33;;;5.70;;
43182;SDS011;28802;38.578;-0.066;2022-12-29T13:47:06;8.93;;;3.60;;
43182;SDS011;28802;38.578;-0.066;2022-12-29T13:49:47;33.00;;;7.70;;
43182;SDS011;28802;38.578;-0.066;2022-12-29T13:52:17;17.87;;;6.27;;
43182;SDS011;28802;38.578;-0.066;2022-12-29T14:00:48;15.20;;;4.20;;
43182;SDS011;28802;38.578;-0.066;2022-12-29T14:03:27;17.07;;;5.10;;
43182;SDS011;28802;38.578;-0.066;2022-12-29T14:08:48;11.23;;;3.87;;
43182;SDS011;28802;38.578;-0.066;2022-12-29T14:11:17;13.77;;;5.33;;
43182;SDS011;28802;38.578;-0.066;2022-12-29T14:13:46;22.47;;;5.33;;
43182;SDS011;28802;38.578;-0.066;2022-12-29T14:19:13;29.10;;;7.07;;
43182;SDS011;28802;38.578;-0.066;2022-12-29T14:21:49;36.07;;;12.17;;
43182;SDS011;28802;38.578;-0.066;2022-12-29T14:34:50;10.40;;;4.20;;
43182;SDS011;28802;38.578;-0.066;2022-12-29T14:37:30;13.50;;;5.07;;
43182;SDS011;28802;38.578;-0.066;2022-12-29T14:42:43;12.63;;;3.57;;
43182;SDS011;28802;38.578;-0.066;2022-12-29T14:47:40;6.83;;;2.50;;
43182;SDS011;28802;38.578;-0.066;2022-12-29T14:50:13;12.23;;;4.10;;
43182;SDS011;28802;38.578;-0.066;2022-12-29T14:58:12;11.03;;;3.90;;
43182;SDS011;28802;38.578;-0.066;2022-12-29T15:00:51;15.20;;;3.90;;
43182;SDS011;28802;38.578;-0.066;2022-12-29T15:06:27;11.20;;;2.70;;
43182;SDS011;28802;38.578;-0.066;2022-12-29T15:08:54;12.80;;;2.20;;
43182;SDS011;28802;38.578;-0.066;2022-12-29T15:14:25;9.00;;;2.73;;
43182;SDS011;28802;38.578;-0.066;2022-12-29T15:16:58;7.93;;;3.40;;
43182;SDS011;28802;38.578;-0.066;2022-12-29T15:19:25;14.27;;;2.63;;
43182;SDS011;28802;38.578;-0.066;2022-12-29T15:21:52;16.60;;;4.10;;
43182;SDS011;28802;38.578;-0.066;2022-12-29T15:24:20;10.27;;;3.50;;
43182;SDS011;28802;38.578;-0.066;2022-12-29T15:26:46;9.10;;;3.87;;
43182;SDS011;28802;38.578;-0.066;2022-12-29T15:34:41;6.97;;;3.10;;
43182;SDS011;28802;38.578;-0.066;2022-12-29T15:37:07;9.93;;;3.73;;
43182;SDS011;28802;38.578;-0.066;2022-12-29T15:39:34;9.30;;;2.77;;
43182;SDS011;28802;38.578;-0.066;2022-12-29T15:42:16;14.97;;;3.27;;
43182;SDS011;28802;38.578;-0.066;2022-12-29T15:44:52;5.97;;;2.80;;
43182;SDS011;28802;38.578;-0.066;2022-12-29T15:47:19;12.33;;;3.70;;
43182;SDS011;28802;38.578;-0.066;2022-12-29T15:52:48;6.93;;;2.90;;
43182;SDS011;28802;38.578;-0.066;2022-12-29T15:55:34;15.63;;;5.30;;
43182;SDS011;28802;38.578;-0.066;2022-12-29T15:58:03;16.00;;;4.30;;
43182;SDS011;28802;38.578;-0.066;2022-12-29T16:00:32;12.13;;;4.20;;
43182;SDS011;28802;38.578;-0.066;2022-12-29T16:03:03;16.93;;;3.80;;
43182;SDS011;28802;38.578;-0.066;2022-12-29T16:05:37;11.57;;;4.60;;
43182;SDS011;28802;38.578;-0.066;2022-12-29T16:08:20;16.63;;;4.00;;
43182;SDS011;28802;38.578;-0.066;2022-12-29T16:10:57;15.53;;;3.90;;
43182;SDS011;28802;38.578;-0.066;2022-12-29T16:13:26;19.23;;;4.63;;
43182;SDS011;28802;38.578;-0.066;2022-12-29T16:16:09;12.77;;;4.03;;
43182;SDS011;28802;38.578;-0.066;2022-12-29T16:18:45;7.27;;;3.63;;
43182;SDS011;28802;38.578;-0.066;2022-12-29T16:21:30;16.00;;;4.30;;
43182;SDS011;28802;38.578;-0.066;2022-12-29T16:24:02;10.33;;;4.53;;
43182;SDS011;28802;38.578;-0.066;2022-12-29T16:26:32;12.90;;;4.17;;
43182;SDS011;28802;38.578;-0.066;2022-12-29T16:29:01;16.53;;;4.30;;
43182;SDS011;28802;38.578;-0.066;2022-12-29T16:42:33;10.13;;;4.03;;
43182;SDS011;28802;38.578;-0.066;2022-12-29T16:45:20;23.73;;;5.30;;
43182;SDS011;28802;38.578;-0.066;2022-12-29T16:48:16;13.80;;;4.63;;
43182;SDS011;28802;38.578;-0.066;2022-12-29T16:53:53;19.80;;;4.97;;
43182;SDS011;28802;38.578;-0.066;2022-12-29T16:56:21;19.60;;;4.70;;
43182;SDS011;28802;38.578;-0.066;2022-12-29T16:59:00;11.70;;;4.10;;
43182;SDS011;28802;38.578;-0.066;2022-12-29T17:01:44;13.13;;;5.00;;
43182;SDS011;28802;38.578;-0.066;2022-12-29T17:04:11;11.60;;;4.80;;
43182;SDS011;28802;38.578;-0.066;2022-12-29T17:06:38;16.03;;;5.83;;
43182;SDS011;28802;38.578;-0.066;2022-12-29T17:11:51;17.57;;;5.93;;
43182;SDS011;28802;38.578;-0.066;2022-12-29T17:17:04;16.10;;;5.50;;
43182;SDS011;28802;38.578;-0.066;2022-12-29T17:19:36;15.97;;;6.30;;
43182;SDS011;28802;38.578;-0.066;2022-12-29T17:22:13;21.80;;;5.80;;
43182;SDS011;28802;38.578;-0.066;2022-12-29T17:24:51;15.67;;;6.97;;
43182;SDS011;28802;38.578;-0.066;2022-12-29T17:27:25;11.50;;;5.13;;
43182;SDS011;28802;38.578;-0.066;2022-12-29T17:30:04;10.53;;;5.93;;
43182;SDS011;28802;38.578;-0.066;2022-12-29T17:32:41;18.67;;;6.30;;
43182;SDS011;28802;38.578;-0.066;2022-12-29T17:35:15;14.77;;;6.73;;
43182;SDS011;28802;38.578;-0.066;2022-12-29T17:37:42;12.07;;;5.77;;
43182;SDS011;28802;38.578;-0.066;2022-12-29T17:40:16;14.13;;;5.83;;
43182;SDS011;28802;38.578;-0.066;2022-12-29T17:42:52;15.53;;;6.83;;
43182;SDS011;28802;38.578;-0.066;2022-12-29T17:45:25;14.40;;;6.47;;
43182;SDS011;28802;38.578;-0.066;2022-12-29T17:47:53;14.90;;;6.73;;
43182;SDS011;28802;38.578;-0.066;2022-12-29T17:50:20;14.27;;;5.57;;
43182;SDS011;28802;38.578;-0.066;2022-12-29T17:53:33;24.10;;;7.50;;
43182;SDS011;28802;38.578;-0.066;2022-12-29T17:55:43;16.77;;;5.97;;
43182;SDS011;28802;38.578;-0.066;2022-12-29T17:58:14;15.70;;;6.30;;
43182;SDS011;28802;38.578;-0.066;2022-12-29T18:00:42;11.40;;;5.70;;